sensor_id;sensor_type;location;lat;lon;timestamp;temperature;humidity
2539;DHT22;1280;49.760;9.664;2023-08-21T00:01:03;25.60;75.20
2539;DHT22;1280;49.760;9.664;2023-08-21T00:03:31;25.60;75.20
2539;DHT22;1280;49.760;9.664;2023-08-21T00:06:00;25.60;75.10
2539;DHT22;1280;49.760;9.664;2023-08-21T00:08:28;25.50;75.10
2539;DHT22;1280;49.760;9.664;2023-08-21T00:10:56;25.50;75.10
2539;DHT22;1280;49.760;9.664;2023-08-21T00:13:25;25.50;75.20
2539;DHT22;1280;49.760;9.664;2023-08-21T00:15:53;25.50;75.20
2539;DHT22;1280;49.760;9.664;2023-08-21T00:18:23;25.40;75.30
2539;DHT22;1280;49.760;9.664;2023-08-21T00:20:51;25.40;75.40
2539;DHT22;1280;49.760;9.664;2023-08-21T00:23:20;25.40;75.40
2539;DHT22;1280;49.760;9.664;2023-08-21T00:25:48;25.40;75.50
2539;DHT22;1280;49.760;9.664;2023-08-21T00:28:16;25.40;75.40
2539;DHT22;1280;49.760;9.664;2023-08-21T00:30:45;25.40;75.40
2539;DHT22;1280;49.760;9.664;2023-08-21T00:33:13;25.30;75.40
2539;DHT22;1280;49.760;9.664;2023-08-21T00:35:43;25.30;75.50
2539;DHT22;1280;49.760;9.664;2023-08-21T00:38:11;25.30;75.50
2539;DHT22;1280;49.760;9.664;2023-08-21T00:40:39;25.30;75.60
2539;DHT22;1280;49.760;9.664;2023-08-21T00:43:07;25.30;75.60
2539;DHT22;1280;49.760;9.664;2023-08-21T00:45:36;25.20;75.60
2539;DHT22;1280;49.760;9.664;2023-08-21T00:48:05;25.20;75.70
2539;DHT22;1280;49.760;9.664;2023-08-21T00:50:34;25.20;75.70
2539;DHT22;1280;49.760;9.664;2023-08-21T00:53:03;25.20;75.70
2539;DHT22;1280;49.760;9.664;2023-08-21T00:55:33;25.10;75.80
2539;DHT22;1280;49.760;9.664;2023-08-21T00:58:02;25.10;75.90
2539;DHT22;1280;49.760;9.664;2023-08-21T01:00:32;25.10;76.00
2539;DHT22;1280;49.760;9.664;2023-08-21T01:03:02;25.10;76.00
2539;DHT22;1280;49.760;9.664;2023-08-21T01:05:30;25.10;75.80
2539;DHT22;1280;49.760;9.664;2023-08-21T01:08:03;25.10;75.80
2539;DHT22;1280;49.760;9.664;2023-08-21T01:10:39;25.00;75.80
2539;DHT22;1280;49.760;9.664;2023-08-21T01:13:17;25.00;75.80
2539;DHT22;1280;49.760;9.664;2023-08-21T01:15:48;25.00;75.90
2539;DHT22;1280;49.760;9.664;2023-08-21T01:18:20;25.00;75.90
2539;DHT22;1280;49.760;9.664;2023-08-21T01:20:50;24.90;76.00
2539;DHT22;1280;49.760;9.664;2023-08-21T01:23:35;24.90;76.10
2539;DHT22;1280;49.760;9.664;2023-08-21T01:26:03;24.90;76.20
2539;DHT22;1280;49.760;9.664;2023-08-21T01:28:33;24.90;76.30
2539;DHT22;1280;49.760;9.664;2023-08-21T01:31:07;24.90;76.30
2539;DHT22;1280;49.760;9.664;2023-08-21T01:33:40;24.90;76.40
2539;DHT22;1280;49.760;9.664;2023-08-21T01:36:11;24.90;76.50
2539;DHT22;1280;49.760;9.664;2023-08-21T01:38:40;24.80;76.50
2539;DHT22;1280;49.760;9.664;2023-08-21T01:41:11;24.80;76.50
2539;DHT22;1280;49.760;9.664;2023-08-21T01:43:39;24.80;76.50
2539;DHT22;1280;49.760;9.664;2023-08-21T01:46:09;24.80;76.50
2539;DHT22;1280;49.760;9.664;2023-08-21T01:48:37;24.80;76.50
2539;DHT22;1280;49.760;9.664;2023-08-21T01:55:18;24.70;76.50
2539;DHT22;1280;49.760;9.664;2023-08-21T01:57:48;24.70;76.60
2539;DHT22;1280;49.760;9.664;2023-08-21T02:00:17;24.70;76.50
2539;DHT22;1280;49.760;9.664;2023-08-21T02:02:46;24.60;76.60
2539;DHT22;1280;49.760;9.664;2023-08-21T02:05:14;24.60;76.60
2539;DHT22;1280;49.760;9.664;2023-08-21T02:07:42;24.60;76.60
2539;DHT22;1280;49.760;9.664;2023-08-21T02:10:10;24.60;76.60
2539;DHT22;1280;49.760;9.664;2023-08-21T02:12:40;24.60;76.60
2539;DHT22;1280;49.760;9.664;2023-08-21T02:15:10;24.60;76.50
2539;DHT22;1280;49.760;9.664;2023-08-21T02:17:39;24.50;76.60
2539;DHT22;1280;49.760;9.664;2023-08-21T02:20:10;24.50;76.60
2539;DHT22;1280;49.760;9.664;2023-08-21T02:22:41;24.50;76.70
2539;DHT22;1280;49.760;9.664;2023-08-21T02:25:10;24.40;76.80
2539;DHT22;1280;49.760;9.664;2023-08-21T02:27:39;24.40;76.80
2539;DHT22;1280;49.760;9.664;2023-08-21T02:30:08;24.40;76.90
2539;DHT22;1280;49.760;9.664;2023-08-21T02:32:36;24.40;76.90
2539;DHT22;1280;49.760;9.664;2023-08-21T02:35:06;24.40;77.00
2539;DHT22;1280;49.760;9.664;2023-08-21T02:37:34;24.40;77.00
2539;DHT22;1280;49.760;9.664;2023-08-21T02:40:06;24.40;77.00
2539;DHT22;1280;49.760;9.664;2023-08-21T02:42:36;24.40;76.90
2539;DHT22;1280;49.760;9.664;2023-08-21T02:45:08;24.40;76.90
2539;DHT22;1280;49.760;9.664;2023-08-21T02:47:36;24.30;76.90
2539;DHT22;1280;49.760;9.664;2023-08-21T02:50:07;24.30;76.90
2539;DHT22;1280;49.760;9.664;2023-08-21T02:52:38;24.30;76.90
2539;DHT22;1280;49.760;9.664;2023-08-21T02:55:07;24.30;77.00
2539;DHT22;1280;49.760;9.664;2023-08-21T02:57:35;24.30;77.00
2539;DHT22;1280;49.760;9.664;2023-08-21T03:00:05;24.30;77.10
2539;DHT22;1280;49.760;9.664;2023-08-21T03:02:35;24.30;77.00
2539;DHT22;1280;49.760;9.664;2023-08-21T03:05:05;24.20;77.00
2539;DHT22;1280;49.760;9.664;2023-08-21T03:07:35;24.20;76.90
2539;DHT22;1280;49.760;9.664;2023-08-21T03:10:03;24.20;77.00
2539;DHT22;1280;49.760;9.664;2023-08-21T03:12:31;24.20;77.10
2539;DHT22;1280;49.760;9.664;2023-08-21T03:14:59;24.20;77.10
2539;DHT22;1280;49.760;9.664;2023-08-21T03:17:28;24.20;77.20
2539;DHT22;1280;49.760;9.664;2023-08-21T03:19:57;24.20;77.40
2539;DHT22;1280;49.760;9.664;2023-08-21T03:22:25;24.20;77.50
2539;DHT22;1280;49.760;9.664;2023-08-21T03:24:53;24.20;77.50
2539;DHT22;1280;49.760;9.664;2023-08-21T03:27:21;24.10;77.60
2539;DHT22;1280;49.760;9.664;2023-08-21T03:29:50;24.10;77.60
2539;DHT22;1280;49.760;9.664;2023-08-21T03:32:18;24.10;77.50
2539;DHT22;1280;49.760;9.664;2023-08-21T03:34:46;24.10;77.50
2539;DHT22;1280;49.760;9.664;2023-08-21T03:37:16;24.10;77.50
2539;DHT22;1280;49.760;9.664;2023-08-21T03:39:44;24.10;77.50
2539;DHT22;1280;49.760;9.664;2023-08-21T03:42:12;24.10;77.40
2539;DHT22;1280;49.760;9.664;2023-08-21T03:44:40;24.10;77.40
2539;DHT22;1280;49.760;9.664;2023-08-21T03:47:08;24.00;77.30
2539;DHT22;1280;49.760;9.664;2023-08-21T03:49:46;24.00;77.30
2539;DHT22;1280;49.760;9.664;2023-08-21T03:52:17;24.00;77.30
2539;DHT22;1280;49.760;9.664;2023-08-21T03:54:45;24.00;77.40
2539;DHT22;1280;49.760;9.664;2023-08-21T03:57:14;23.90;77.50
2539;DHT22;1280;49.760;9.664;2023-08-21T03:59:42;23.90;77.50
2539;DHT22;1280;49.760;9.664;2023-08-21T04:02:10;23.90;77.60
2539;DHT22;1280;49.760;9.664;2023-08-21T04:04:38;23.90;77.60
2539;DHT22;1280;49.760;9.664;2023-08-21T04:07:06;23.80;77.60
2539;DHT22;1280;49.760;9.664;2023-08-21T04:09:35;23.80;77.60
2539;DHT22;1280;49.760;9.664;2023-08-21T04:12:03;23.80;77.60
2539;DHT22;1280;49.760;9.664;2023-08-21T04:14:32;23.80;77.60
2539;DHT22;1280;49.760;9.664;2023-08-21T04:17:00;23.80;77.70
2539;DHT22;1280;49.760;9.664;2023-08-21T04:19:28;23.80;77.70
2539;DHT22;1280;49.760;9.664;2023-08-21T04:21:59;23.80;77.80
2539;DHT22;1280;49.760;9.664;2023-08-21T04:24:27;23.80;77.80
2539;DHT22;1280;49.760;9.664;2023-08-21T04:26:56;23.80;77.80
2539;DHT22;1280;49.760;9.664;2023-08-21T04:29:25;23.80;77.80
2539;DHT22;1280;49.760;9.664;2023-08-21T04:31:53;23.80;77.70
2539;DHT22;1280;49.760;9.664;2023-08-21T04:34:21;23.80;77.70
2539;DHT22;1280;49.760;9.664;2023-08-21T04:36:50;23.80;77.70
2539;DHT22;1280;49.760;9.664;2023-08-21T04:39:19;23.80;77.70
2539;DHT22;1280;49.760;9.664;2023-08-21T04:41:47;23.80;77.60
2539;DHT22;1280;49.760;9.664;2023-08-21T04:44:18;23.70;77.70
2539;DHT22;1280;49.760;9.664;2023-08-21T04:46:48;23.70;77.70
2539;DHT22;1280;49.760;9.664;2023-08-21T04:49:16;23.80;77.70
2539;DHT22;1280;49.760;9.664;2023-08-21T04:51:44;23.70;77.70
2539;DHT22;1280;49.760;9.664;2023-08-21T04:54:12;23.70;77.60
2539;DHT22;1280;49.760;9.664;2023-08-21T04:56:40;23.70;77.60
2539;DHT22;1280;49.760;9.664;2023-08-21T04:59:11;23.70;77.60
2539;DHT22;1280;49.760;9.664;2023-08-21T05:01:42;23.80;77.80
2539;DHT22;1280;49.760;9.664;2023-08-21T05:04:11;23.90;78.10
2539;DHT22;1280;49.760;9.664;2023-08-21T05:06:39;24.20;78.10
2539;DHT22;1280;49.760;9.664;2023-08-21T05:09:07;24.60;77.60
2539;DHT22;1280;49.760;9.664;2023-08-21T05:11:35;25.10;76.90
2539;DHT22;1280;49.760;9.664;2023-08-21T05:14:04;25.60;76.10
2539;DHT22;1280;49.760;9.664;2023-08-21T05:16:32;26.10;75.40
2539;DHT22;1280;49.760;9.664;2023-08-21T05:19:02;26.50;74.70
2539;DHT22;1280;49.760;9.664;2023-08-21T05:21:31;27.00;74.10
2539;DHT22;1280;49.760;9.664;2023-08-21T05:23:59;27.50;73.60
2539;DHT22;1280;49.760;9.664;2023-08-21T05:26:29;28.00;72.90
2539;DHT22;1280;49.760;9.664;2023-08-21T05:28:56;28.50;72.20
2539;DHT22;1280;49.760;9.664;2023-08-21T05:31:25;29.00;71.40
2539;DHT22;1280;49.760;9.664;2023-08-21T05:33:54;29.50;70.20
2539;DHT22;1280;49.760;9.664;2023-08-21T05:36:23;29.80;69.70
2539;DHT22;1280;49.760;9.664;2023-08-21T05:38:51;30.40;68.80
2539;DHT22;1280;49.760;9.664;2023-08-21T05:41:19;30.90;67.80
2539;DHT22;1280;49.760;9.664;2023-08-21T05:43:47;31.50;66.70
2539;DHT22;1280;49.760;9.664;2023-08-21T05:46:16;32.00;65.60
2539;DHT22;1280;49.760;9.664;2023-08-21T05:48:44;32.60;64.60
2539;DHT22;1280;49.760;9.664;2023-08-21T05:51:12;33.10;63.60
2539;DHT22;1280;49.760;9.664;2023-08-21T05:53:41;33.40;62.00
2539;DHT22;1280;49.760;9.664;2023-08-21T05:56:09;32.70;61.10
2539;DHT22;1280;49.760;9.664;2023-08-21T05:58:37;31.70;61.70
2539;DHT22;1280;49.760;9.664;2023-08-21T06:01:07;30.60;62.70
2539;DHT22;1280;49.760;9.664;2023-08-21T06:03:35;29.60;63.90
2539;DHT22;1280;49.760;9.664;2023-08-21T06:06:09;28.80;65.20
2539;DHT22;1280;49.760;9.664;2023-08-21T06:08:40;28.10;66.30
2539;DHT22;1280;49.760;9.664;2023-08-21T06:11:09;27.50;67.30
2539;DHT22;1280;49.760;9.664;2023-08-21T06:13:37;27.10;68.20
2539;DHT22;1280;49.760;9.664;2023-08-21T06:16:05;26.80;68.90
2539;DHT22;1280;49.760;9.664;2023-08-21T06:18:36;26.60;69.60
2539;DHT22;1280;49.760;9.664;2023-08-21T06:21:04;26.40;70.20
2539;DHT22;1280;49.760;9.664;2023-08-21T06:23:32;26.20;70.70
2539;DHT22;1280;49.760;9.664;2023-08-21T06:26:01;26.10;71.20
2539;DHT22;1280;49.760;9.664;2023-08-21T06:28:30;26.00;71.60
2539;DHT22;1280;49.760;9.664;2023-08-21T06:30:58;25.80;72.00
2539;DHT22;1280;49.760;9.664;2023-08-21T06:33:32;25.80;72.50
2539;DHT22;1280;49.760;9.664;2023-08-21T06:36:00;25.70;72.80
2539;DHT22;1280;49.760;9.664;2023-08-21T06:38:28;25.60;73.30
2539;DHT22;1280;49.760;9.664;2023-08-21T06:40:56;25.60;73.60
2539;DHT22;1280;49.760;9.664;2023-08-21T06:43:26;25.50;73.90
2539;DHT22;1280;49.760;9.664;2023-08-21T06:45:56;25.50;74.30
2539;DHT22;1280;49.760;9.664;2023-08-21T06:48:24;25.50;74.40
2539;DHT22;1280;49.760;9.664;2023-08-21T06:50:52;25.40;74.70
2539;DHT22;1280;49.760;9.664;2023-08-21T06:53:20;25.40;75.00
2539;DHT22;1280;49.760;9.664;2023-08-21T06:55:48;25.40;75.30
2539;DHT22;1280;49.760;9.664;2023-08-21T06:58:16;25.40;75.50
2539;DHT22;1280;49.760;9.664;2023-08-21T07:00:46;25.50;75.80
2539;DHT22;1280;49.760;9.664;2023-08-21T07:03:14;25.50;75.90
2539;DHT22;1280;49.760;9.664;2023-08-21T07:05:46;25.50;76.10
2539;DHT22;1280;49.760;9.664;2023-08-21T07:08:14;25.60;76.30
2539;DHT22;1280;49.760;9.664;2023-08-21T07:10:42;25.60;76.30
2539;DHT22;1280;49.760;9.664;2023-08-21T07:13:10;25.70;76.40
2539;DHT22;1280;49.760;9.664;2023-08-21T07:15:38;25.70;76.60
2539;DHT22;1280;49.760;9.664;2023-08-21T07:18:08;25.70;76.60
2539;DHT22;1280;49.760;9.664;2023-08-21T07:20:36;25.80;76.80
2539;DHT22;1280;49.760;9.664;2023-08-21T07:23:04;25.80;76.80
2539;DHT22;1280;49.760;9.664;2023-08-21T07:25:32;25.90;76.80
2539;DHT22;1280;49.760;9.664;2023-08-21T07:28:00;26.00;76.90
2539;DHT22;1280;49.760;9.664;2023-08-21T07:30:28;26.00;76.90
2539;DHT22;1280;49.760;9.664;2023-08-21T07:32:58;26.10;77.00
2539;DHT22;1280;49.760;9.664;2023-08-21T07:35:27;26.10;77.10
2539;DHT22;1280;49.760;9.664;2023-08-21T07:37:55;26.10;77.20
2539;DHT22;1280;49.760;9.664;2023-08-21T07:40:24;26.10;77.20
2539;DHT22;1280;49.760;9.664;2023-08-21T07:42:52;26.20;77.30
2539;DHT22;1280;49.760;9.664;2023-08-21T07:45:20;26.20;77.30
2539;DHT22;1280;49.760;9.664;2023-08-21T07:47:48;26.20;77.40
2539;DHT22;1280;49.760;9.664;2023-08-21T07:50:36;26.30;77.40
2539;DHT22;1280;49.760;9.664;2023-08-21T07:53:04;26.30;77.40
2539;DHT22;1280;49.760;9.664;2023-08-21T07:55:32;26.30;77.50
2539;DHT22;1280;49.760;9.664;2023-08-21T07:58:00;26.30;77.50
2539;DHT22;1280;49.760;9.664;2023-08-21T08:00:28;26.30;77.50
2539;DHT22;1280;49.760;9.664;2023-08-21T08:02:56;26.40;77.50
2539;DHT22;1280;49.760;9.664;2023-08-21T08:05:24;26.40;77.50
2539;DHT22;1280;49.760;9.664;2023-08-21T08:07:53;26.50;77.60
2539;DHT22;1280;49.760;9.664;2023-08-21T08:10:21;26.50;77.60
2539;DHT22;1280;49.760;9.664;2023-08-21T08:12:49;26.50;77.60
2539;DHT22;1280;49.760;9.664;2023-08-21T08:15:18;26.50;77.60
2539;DHT22;1280;49.760;9.664;2023-08-21T08:17:46;26.60;77.60
2539;DHT22;1280;49.760;9.664;2023-08-21T08:20:18;26.60;77.50
2539;DHT22;1280;49.760;9.664;2023-08-21T08:22:46;26.60;77.40
2539;DHT22;1280;49.760;9.664;2023-08-21T08:25:16;26.70;77.50
2539;DHT22;1280;49.760;9.664;2023-08-21T08:27:44;26.70;77.60
2539;DHT22;1280;49.760;9.664;2023-08-21T08:30:13;26.70;77.60
2539;DHT22;1280;49.760;9.664;2023-08-21T08:32:42;26.80;77.60
2539;DHT22;1280;49.760;9.664;2023-08-21T08:35:12;26.80;77.70
2539;DHT22;1280;49.760;9.664;2023-08-21T08:37:41;26.80;77.70
2539;DHT22;1280;49.760;9.664;2023-08-21T08:40:11;26.80;77.80
2539;DHT22;1280;49.760;9.664;2023-08-21T08:42:40;26.90;77.80
2539;DHT22;1280;49.760;9.664;2023-08-21T08:45:13;27.00;77.70
2539;DHT22;1280;49.760;9.664;2023-08-21T08:47:41;27.00;77.60
2539;DHT22;1280;49.760;9.664;2023-08-21T08:50:11;27.00;77.50
2539;DHT22;1280;49.760;9.664;2023-08-21T08:52:40;27.10;77.50
2539;DHT22;1280;49.760;9.664;2023-08-21T08:55:09;27.10;77.50
2539;DHT22;1280;49.760;9.664;2023-08-21T08:57:37;27.10;77.60
2539;DHT22;1280;49.760;9.664;2023-08-21T09:00:08;27.20;77.50
2539;DHT22;1280;49.760;9.664;2023-08-21T09:02:38;27.30;77.40
2539;DHT22;1280;49.760;9.664;2023-08-21T09:05:07;27.30;77.30
2539;DHT22;1280;49.760;9.664;2023-08-21T09:07:38;27.40;77.20
2539;DHT22;1280;49.760;9.664;2023-08-21T09:10:13;27.50;77.00
2539;DHT22;1280;49.760;9.664;2023-08-21T09:12:41;27.50;76.90
2539;DHT22;1280;49.760;9.664;2023-08-21T09:15:13;27.50;76.90
2539;DHT22;1280;49.760;9.664;2023-08-21T09:17:41;27.60;76.80
2539;DHT22;1280;49.760;9.664;2023-08-21T09:20:10;27.60;76.70
2539;DHT22;1280;49.760;9.664;2023-08-21T09:22:38;27.70;76.60
2539;DHT22;1280;49.760;9.664;2023-08-21T09:25:07;27.80;76.40
2539;DHT22;1280;49.760;9.664;2023-08-21T09:27:38;27.80;76.20
2539;DHT22;1280;49.760;9.664;2023-08-21T09:30:09;27.90;76.00
2539;DHT22;1280;49.760;9.664;2023-08-21T09:32:57;27.90;75.60
2539;DHT22;1280;49.760;9.664;2023-08-21T09:35:28;27.90;75.10
2539;DHT22;1280;49.760;9.664;2023-08-21T09:37:56;28.00;75.10
2539;DHT22;1280;49.760;9.664;2023-08-21T09:40:24;28.00;74.90
2539;DHT22;1280;49.760;9.664;2023-08-21T09:42:52;28.10;74.80
2539;DHT22;1280;49.760;9.664;2023-08-21T09:45:21;28.10;74.50
2539;DHT22;1280;49.760;9.664;2023-08-21T09:47:51;28.20;74.10
2539;DHT22;1280;49.760;9.664;2023-08-21T09:50:22;28.20;73.70
2539;DHT22;1280;49.760;9.664;2023-08-21T09:52:51;28.30;73.30
2539;DHT22;1280;49.760;9.664;2023-08-21T09:55:20;28.30;73.20
2539;DHT22;1280;49.760;9.664;2023-08-21T09:57:50;28.30;72.80
2539;DHT22;1280;49.760;9.664;2023-08-21T10:00:29;28.40;72.30
2539;DHT22;1280;49.760;9.664;2023-08-21T10:03:01;28.40;71.80
2539;DHT22;1280;49.760;9.664;2023-08-21T10:05:32;28.40;71.60
2539;DHT22;1280;49.760;9.664;2023-08-21T10:08:02;28.40;71.60
2539;DHT22;1280;49.760;9.664;2023-08-21T10:10:35;28.50;71.40
2539;DHT22;1280;49.760;9.664;2023-08-21T10:17:12;28.60;70.80
2539;DHT22;1280;49.760;9.664;2023-08-21T10:19:40;28.60;70.20
2539;DHT22;1280;49.760;9.664;2023-08-21T10:22:10;28.60;70.00
2539;DHT22;1280;49.760;9.664;2023-08-21T10:24:38;28.60;69.90
2539;DHT22;1280;49.760;9.664;2023-08-21T10:27:06;28.70;69.60
2539;DHT22;1280;49.760;9.664;2023-08-21T10:29:34;28.70;69.20
2539;DHT22;1280;49.760;9.664;2023-08-21T10:32:04;28.80;68.70
2539;DHT22;1280;49.760;9.664;2023-08-21T10:34:34;28.80;67.90
2539;DHT22;1280;49.760;9.664;2023-08-21T10:37:06;28.80;67.50
2539;DHT22;1280;49.760;9.664;2023-08-21T10:39:38;28.90;67.30
2539;DHT22;1280;49.760;9.664;2023-08-21T10:42:09;28.90;67.20
2539;DHT22;1280;49.760;9.664;2023-08-21T10:44:49;28.90;67.10
2539;DHT22;1280;49.760;9.664;2023-08-21T10:47:20;29.00;66.80
2539;DHT22;1280;49.760;9.664;2023-08-21T10:49:52;29.00;66.60
2539;DHT22;1280;49.760;9.664;2023-08-21T10:52:22;29.00;66.40
2539;DHT22;1280;49.760;9.664;2023-08-21T10:54:53;29.10;66.30
2539;DHT22;1280;49.760;9.664;2023-08-21T10:57:22;29.10;66.00
2539;DHT22;1280;49.760;9.664;2023-08-21T10:59:52;29.10;66.00
2539;DHT22;1280;49.760;9.664;2023-08-21T11:02:21;29.20;65.90
2539;DHT22;1280;49.760;9.664;2023-08-21T11:04:50;29.20;65.70
2539;DHT22;1280;49.760;9.664;2023-08-21T11:07:19;29.20;65.80
2539;DHT22;1280;49.760;9.664;2023-08-21T11:09:48;29.30;65.80
2539;DHT22;1280;49.760;9.664;2023-08-21T11:12:19;29.30;65.60
2539;DHT22;1280;49.760;9.664;2023-08-21T11:14:48;29.30;65.20
2539;DHT22;1280;49.760;9.664;2023-08-21T11:17:17;29.30;65.20
2539;DHT22;1280;49.760;9.664;2023-08-21T11:19:46;29.40;65.00
2539;DHT22;1280;49.760;9.664;2023-08-21T11:22:15;29.40;64.70
2539;DHT22;1280;49.760;9.664;2023-08-21T11:24:45;29.40;64.60
2539;DHT22;1280;49.760;9.664;2023-08-21T11:27:15;29.40;64.20
2539;DHT22;1280;49.760;9.664;2023-08-21T11:29:46;29.50;64.00
2539;DHT22;1280;49.760;9.664;2023-08-21T11:32:16;29.50;64.00
2539;DHT22;1280;49.760;9.664;2023-08-21T11:34:48;29.50;64.10
2539;DHT22;1280;49.760;9.664;2023-08-21T11:37:17;29.50;64.20
2539;DHT22;1280;49.760;9.664;2023-08-21T11:39:47;29.60;63.90
2539;DHT22;1280;49.760;9.664;2023-08-21T11:42:16;29.60;63.40
2539;DHT22;1280;49.760;9.664;2023-08-21T11:44:47;29.60;63.30
2539;DHT22;1280;49.760;9.664;2023-08-21T11:47:16;29.60;63.50
2539;DHT22;1280;49.760;9.664;2023-08-21T11:49:45;29.70;63.30
2539;DHT22;1280;49.760;9.664;2023-08-21T11:52:18;29.80;63.00
2539;DHT22;1280;49.760;9.664;2023-08-21T11:54:48;29.90;62.60
2539;DHT22;1280;49.760;9.664;2023-08-21T11:57:18;29.90;62.50
2539;DHT22;1280;49.760;9.664;2023-08-21T11:59:51;30.00;62.20
2539;DHT22;1280;49.760;9.664;2023-08-21T12:02:22;30.00;61.90
2539;DHT22;1280;49.760;9.664;2023-08-21T12:04:54;30.10;61.30
2539;DHT22;1280;49.760;9.664;2023-08-21T12:07:22;30.10;61.30
2539;DHT22;1280;49.760;9.664;2023-08-21T12:09:50;30.10;61.50
2539;DHT22;1280;49.760;9.664;2023-08-21T12:12:18;30.10;61.60
2539;DHT22;1280;49.760;9.664;2023-08-21T12:14:46;30.20;61.70
2539;DHT22;1280;49.760;9.664;2023-08-21T12:17:16;30.30;61.80
2539;DHT22;1280;49.760;9.664;2023-08-21T12:19:44;30.40;61.70
2539;DHT22;1280;49.760;9.664;2023-08-21T12:22:12;30.40;61.60
2539;DHT22;1280;49.760;9.664;2023-08-21T12:24:40;30.40;61.30
2539;DHT22;1280;49.760;9.664;2023-08-21T12:27:08;30.40;61.00
2539;DHT22;1280;49.760;9.664;2023-08-21T12:29:36;30.40;60.90
2539;DHT22;1280;49.760;9.664;2023-08-21T12:32:04;30.40;60.80
2539;DHT22;1280;49.760;9.664;2023-08-21T12:34:34;30.40;60.50
2539;DHT22;1280;49.760;9.664;2023-08-21T12:37:02;30.40;60.40
2539;DHT22;1280;49.760;9.664;2023-08-21T12:39:30;30.50;60.30
2539;DHT22;1280;49.760;9.664;2023-08-21T12:41:58;30.50;60.10
2539;DHT22;1280;49.760;9.664;2023-08-21T12:44:28;30.50;60.00
2539;DHT22;1280;49.760;9.664;2023-08-21T12:47:02;30.50;60.10
2539;DHT22;1280;49.760;9.664;2023-08-21T12:49:31;30.50;60.30
2539;DHT22;1280;49.760;9.664;2023-08-21T12:52:02;30.60;60.00
2539;DHT22;1280;49.760;9.664;2023-08-21T12:54:33;30.60;59.90
2539;DHT22;1280;49.760;9.664;2023-08-21T12:57:01;30.50;60.00
2539;DHT22;1280;49.760;9.664;2023-08-21T12:59:29;30.60;60.00
2539;DHT22;1280;49.760;9.664;2023-08-21T13:01:58;30.60;60.00
2539;DHT22;1280;49.760;9.664;2023-08-21T13:04:27;30.60;60.00
2539;DHT22;1280;49.760;9.664;2023-08-21T13:06:56;30.60;59.90
2539;DHT22;1280;49.760;9.664;2023-08-21T13:09:26;30.70;60.00
2539;DHT22;1280;49.760;9.664;2023-08-21T13:11:54;30.60;59.90
2539;DHT22;1280;49.760;9.664;2023-08-21T13:14:22;30.60;60.00
2539;DHT22;1280;49.760;9.664;2023-08-21T13:16:50;30.60;60.00
2539;DHT22;1280;49.760;9.664;2023-08-21T13:19:18;30.70;60.20
2539;DHT22;1280;49.760;9.664;2023-08-21T13:26:01;30.80;59.80
2539;DHT22;1280;49.760;9.664;2023-08-21T13:28:29;30.80;59.90
2539;DHT22;1280;49.760;9.664;2023-08-21T13:31:00;30.90;59.70
2539;DHT22;1280;49.760;9.664;2023-08-21T13:33:28;30.90;59.60
2539;DHT22;1280;49.760;9.664;2023-08-21T13:35:57;31.00;59.50
2539;DHT22;1280;49.760;9.664;2023-08-21T13:38:25;31.00;59.40
2539;DHT22;1280;49.760;9.664;2023-08-21T13:40:53;30.90;59.30
2539;DHT22;1280;49.760;9.664;2023-08-21T13:43:23;30.90;59.50
2539;DHT22;1280;49.760;9.664;2023-08-21T13:45:55;30.90;59.80
2539;DHT22;1280;49.760;9.664;2023-08-21T13:52:30;31.00;60.30
2539;DHT22;1280;49.760;9.664;2023-08-21T13:54:58;31.00;60.00
2539;DHT22;1280;49.760;9.664;2023-08-21T13:57:26;31.00;59.80
2539;DHT22;1280;49.760;9.664;2023-08-21T13:59:56;31.00;59.50
2539;DHT22;1280;49.760;9.664;2023-08-21T14:02:23;31.10;59.50
2539;DHT22;1280;49.760;9.664;2023-08-21T14:04:52;31.10;59.60
2539;DHT22;1280;49.760;9.664;2023-08-21T14:07:20;31.10;59.60
2539;DHT22;1280;49.760;9.664;2023-08-21T14:09:48;31.10;59.60
2539;DHT22;1280;49.760;9.664;2023-08-21T14:12:17;31.10;59.70
2539;DHT22;1280;49.760;9.664;2023-08-21T14:14:45;31.10;59.70
2539;DHT22;1280;49.760;9.664;2023-08-21T14:17:15;31.20;59.70
2539;DHT22;1280;49.760;9.664;2023-08-21T14:19:43;31.20;59.70
2539;DHT22;1280;49.760;9.664;2023-08-21T14:22:11;31.30;59.70
2539;DHT22;1280;49.760;9.664;2023-08-21T14:24:39;31.30;59.40
2539;DHT22;1280;49.760;9.664;2023-08-21T14:27:07;31.30;59.30
2539;DHT22;1280;49.760;9.664;2023-08-21T14:29:35;31.30;59.30
2539;DHT22;1280;49.760;9.664;2023-08-21T14:32:04;31.30;59.40
2539;DHT22;1280;49.760;9.664;2023-08-21T14:34:33;31.40;59.30
2539;DHT22;1280;49.760;9.664;2023-08-21T14:37:01;31.40;59.40
2539;DHT22;1280;49.760;9.664;2023-08-21T14:39:31;31.40;59.40
2539;DHT22;1280;49.760;9.664;2023-08-21T14:41:59;31.50;59.20
2539;DHT22;1280;49.760;9.664;2023-08-21T14:44:28;31.60;59.20
2539;DHT22;1280;49.760;9.664;2023-08-21T14:46:56;31.60;59.20
2539;DHT22;1280;49.760;9.664;2023-08-21T14:49:29;31.70;59.10
2539;DHT22;1280;49.760;9.664;2023-08-21T14:51:58;31.70;58.90
2539;DHT22;1280;49.760;9.664;2023-08-21T14:54:26;31.60;58.90
2539;DHT22;1280;49.760;9.664;2023-08-21T14:56:54;31.60;58.90
2539;DHT22;1280;49.760;9.664;2023-08-21T14:59:22;31.60;58.70
2539;DHT22;1280;49.760;9.664;2023-08-21T15:01:52;31.60;58.70
2539;DHT22;1280;49.760;9.664;2023-08-21T15:04:22;31.50;58.50
2539;DHT22;1280;49.760;9.664;2023-08-21T15:06:50;31.50;58.50
2539;DHT22;1280;49.760;9.664;2023-08-21T15:09:20;31.50;58.50
2539;DHT22;1280;49.760;9.664;2023-08-21T15:11:48;31.50;58.40
2539;DHT22;1280;49.760;9.664;2023-08-21T15:14:16;31.50;58.30
2539;DHT22;1280;49.760;9.664;2023-08-21T15:16:46;31.60;58.50
2539;DHT22;1280;49.760;9.664;2023-08-21T15:19:14;31.60;58.50
2539;DHT22;1280;49.760;9.664;2023-08-21T15:21:41;31.60;58.50
2539;DHT22;1280;49.760;9.664;2023-08-21T15:24:11;31.60;58.70
2539;DHT22;1280;49.760;9.664;2023-08-21T15:26:41;31.70;58.80
2539;DHT22;1280;49.760;9.664;2023-08-21T15:29:09;31.70;58.80
2539;DHT22;1280;49.760;9.664;2023-08-21T15:31:37;31.80;58.80
2539;DHT22;1280;49.760;9.664;2023-08-21T15:34:05;31.80;58.80
2539;DHT22;1280;49.760;9.664;2023-08-21T15:36:34;31.80;58.80
2539;DHT22;1280;49.760;9.664;2023-08-21T15:39:03;31.80;58.70
2539;DHT22;1280;49.760;9.664;2023-08-21T15:41:31;31.80;58.70
2539;DHT22;1280;49.760;9.664;2023-08-21T15:44:00;31.80;58.90
2539;DHT22;1280;49.760;9.664;2023-08-21T15:46:28;31.80;58.90
2539;DHT22;1280;49.760;9.664;2023-08-21T15:48:56;31.80;58.80
2539;DHT22;1280;49.760;9.664;2023-08-21T15:51:24;31.80;58.60
2539;DHT22;1280;49.760;9.664;2023-08-21T15:53:52;31.80;58.60
2539;DHT22;1280;49.760;9.664;2023-08-21T15:56:20;31.80;58.60
2539;DHT22;1280;49.760;9.664;2023-08-21T15:58:48;31.80;58.70
2539;DHT22;1280;49.760;9.664;2023-08-21T16:01:19;31.70;58.90
2539;DHT22;1280;49.760;9.664;2023-08-21T16:03:47;31.70;59.00
2539;DHT22;1280;49.760;9.664;2023-08-21T16:06:15;31.70;59.00
2539;DHT22;1280;49.760;9.664;2023-08-21T16:08:43;31.80;58.90
2539;DHT22;1280;49.760;9.664;2023-08-21T16:11:11;31.80;58.80
2539;DHT22;1280;49.760;9.664;2023-08-21T16:13:40;31.80;58.70
2539;DHT22;1280;49.760;9.664;2023-08-21T16:16:08;31.80;58.60
2539;DHT22;1280;49.760;9.664;2023-08-21T16:18:38;31.80;58.40
2539;DHT22;1280;49.760;9.664;2023-08-21T16:21:06;31.80;58.40
2539;DHT22;1280;49.760;9.664;2023-08-21T16:23:35;31.80;58.40
2539;DHT22;1280;49.760;9.664;2023-08-21T16:26:03;31.80;58.40
2539;DHT22;1280;49.760;9.664;2023-08-21T16:28:31;31.80;58.30
2539;DHT22;1280;49.760;9.664;2023-08-21T16:30:59;31.80;58.10